sensor_id;sensor_type;location;lat;lon;timestamp;P1;durP1;ratioP1;P2;durP2;ratioP2
44750;SDS011;30477;48.224;11.470;2023-02-28T00:02:19;9.03;;;5.00;;
44750;SDS011;30477;48.224;11.470;2023-02-28T00:04:44;7.43;;;4.93;;
44750;SDS011;30477;48.224;11.470;2023-02-28T00:07:09;7.73;;;4.60;;
44750;SDS011;30477;48.224;11.470;2023-02-28T00:09:35;6.73;;;4.77;;
44750;SDS011;30477;48.224;11.470;2023-02-28T00:12:00;5.50;;;4.67;;
44750;SDS011;30477;48.224;11.470;2023-02-28T00:14:35;7.82;;;5.07;;
44750;SDS011;30477;48.224;11.470;2023-02-28T00:17:00;6.60;;;4.65;;
44750;SDS011;30477;48.224;11.470;2023-02-28T00:19:25;7.20;;;5.23;;
44750;SDS011;30477;48.224;11.470;2023-02-28T00:21:51;7.80;;;5.23;;
44750;SDS011;30477;48.224;11.470;2023-02-28T00:24:16;7.47;;;5.17;;
44750;SDS011;30477;48.224;11.470;2023-02-28T00:26:41;7.33;;;5.30;;
44750;SDS011;30477;48.224;11.470;2023-02-28T00:29:07;8.57;;;5.40;;
44750;SDS011;30477;48.224;11.470;2023-02-28T00:31:32;7.70;;;5.10;;
44750;SDS011;30477;48.224;11.470;2023-02-28T00:33:57;7.43;;;5.40;;
44750;SDS011;30477;48.224;11.470;2023-02-28T00:36:23;7.23;;;5.10;;
44750;SDS011;30477;48.224;11.470;2023-02-28T00:38:48;6.63;;;5.00;;
44750;SDS011;30477;48.224;11.470;2023-02-28T00:41:14;7.80;;;5.43;;
44750;SDS011;30477;48.224;11.470;2023-02-28T00:43:39;8.90;;;5.57;;
44750;SDS011;30477;48.224;11.470;2023-02-28T00:46:05;9.30;;;5.40;;
44750;SDS011;30477;48.224;11.470;2023-02-28T00:48:31;8.80;;;5.60;;
44750;SDS011;30477;48.224;11.470;2023-02-28T00:50:57;7.82;;;5.18;;
44750;SDS011;30477;48.224;11.470;2023-02-28T00:53:22;8.80;;;5.53;;
44750;SDS011;30477;48.224;11.470;2023-02-28T00:55:48;8.20;;;5.43;;
44750;SDS011;30477;48.224;11.470;2023-02-28T00:58:14;9.15;;;5.72;;
44750;SDS011;30477;48.224;11.470;2023-02-28T01:00:40;8.98;;;5.78;;
44750;SDS011;30477;48.224;11.470;2023-02-28T01:03:05;7.73;;;5.57;;
44750;SDS011;30477;48.224;11.470;2023-02-28T01:05:30;10.27;;;5.57;;
44750;SDS011;30477;48.224;11.470;2023-02-28T01:07:56;7.87;;;5.30;;
44750;SDS011;30477;48.224;11.470;2023-02-28T01:10:21;9.87;;;5.93;;
44750;SDS011;30477;48.224;11.470;2023-02-28T01:12:46;9.27;;;5.87;;
44750;SDS011;30477;48.224;11.470;2023-02-28T01:15:12;7.87;;;5.37;;
44750;SDS011;30477;48.224;11.470;2023-02-28T01:17:37;8.57;;;5.13;;
44750;SDS011;30477;48.224;11.470;2023-02-28T01:20:03;7.97;;;5.33;;
44750;SDS011;30477;48.224;11.470;2023-02-28T01:22:29;8.60;;;5.60;;
44750;SDS011;30477;48.224;11.470;2023-02-28T01:24:54;11.20;;;5.57;;
44750;SDS011;30477;48.224;11.470;2023-02-28T01:27:19;7.87;;;5.60;;
44750;SDS011;30477;48.224;11.470;2023-02-28T01:29:45;9.00;;;5.80;;
44750;SDS011;30477;48.224;11.470;2023-02-28T01:32:10;8.60;;;5.50;;
44750;SDS011;30477;48.224;11.470;2023-02-28T01:34:35;11.13;;;5.53;;
44750;SDS011;30477;48.224;11.470;2023-02-28T01:37:01;8.52;;;5.40;;
44750;SDS011;30477;48.224;11.470;2023-02-28T01:39:28;7.38;;;5.40;;
44750;SDS011;30477;48.224;11.470;2023-02-28T01:41:54;9.13;;;5.45;;
44750;SDS011;30477;48.224;11.470;2023-02-28T01:47:32;10.18;;;5.65;;
44750;SDS011;30477;48.224;11.470;2023-02-28T01:50:04;10.65;;;6.03;;
44750;SDS011;30477;48.224;11.470;2023-02-28T01:52:33;9.13;;;5.45;;
44750;SDS011;30477;48.224;11.470;2023-02-28T01:54:59;8.82;;;6.05;;
44750;SDS011;30477;48.224;11.470;2023-02-28T01:57:30;9.18;;;5.60;;
44750;SDS011;30477;48.224;11.470;2023-02-28T02:00:04;8.45;;;5.78;;
44750;SDS011;30477;48.224;11.470;2023-02-28T02:02:33;8.90;;;5.40;;
44750;SDS011;30477;48.224;11.470;2023-02-28T02:05:09;13.32;;;6.03;;
44750;SDS011;30477;48.224;11.470;2023-02-28T02:07:37;8.95;;;5.60;;
44750;SDS011;30477;48.224;11.470;2023-02-28T02:10:06;9.07;;;6.03;;
44750;SDS011;30477;48.224;11.470;2023-02-28T02:17:46;8.65;;;5.63;;
44750;SDS011;30477;48.224;11.470;2023-02-28T02:39:53;8.52;;;5.50;;
44750;SDS011;30477;48.224;11.470;2023-02-28T02:42:29;9.10;;;6.32;;
44750;SDS011;30477;48.224;11.470;2023-02-28T02:45:10;8.85;;;5.88;;
44750;SDS011;30477;48.224;11.470;2023-02-28T02:47:39;9.32;;;5.72;;
44750;SDS011;30477;48.224;11.470;2023-02-28T02:50:08;11.13;;;6.18;;
44750;SDS011;30477;48.224;11.470;2023-02-28T02:52:42;9.80;;;6.03;;
44750;SDS011;30477;48.224;11.470;2023-02-28T02:55:11;10.98;;;6.03;;
44750;SDS011;30477;48.224;11.470;2023-02-28T02:57:45;9.23;;;6.25;;
44750;SDS011;30477;48.224;11.470;2023-02-28T03:00:15;11.25;;;6.40;;
44750;SDS011;30477;48.224;11.470;2023-02-28T03:02:45;7.70;;;5.72;;
44750;SDS011;30477;48.224;11.470;2023-02-28T03:05:15;13.02;;;6.25;;
44750;SDS011;30477;48.224;11.470;2023-02-28T03:07:44;11.60;;;6.60;;
44750;SDS011;30477;48.224;11.470;2023-02-28T03:13:00;11.57;;;6.87;;
44750;SDS011;30477;48.224;11.470;2023-02-28T03:15:45;10.43;;;6.43;;
44750;SDS011;30477;48.224;11.470;2023-02-28T03:18:32;9.93;;;6.68;;
44750;SDS011;30477;48.224;11.470;2023-02-28T03:23:48;9.73;;;6.32;;
44750;SDS011;30477;48.224;11.470;2023-02-28T03:29:03;11.75;;;6.78;;
44750;SDS011;30477;48.224;11.470;2023-02-28T03:31:45;9.20;;;6.55;;
44750;SDS011;30477;48.224;11.470;2023-02-28T03:34:39;9.55;;;6.40;;
44750;SDS011;30477;48.224;11.470;2023-02-28T03:37:13;11.48;;;7.20;;
44750;SDS011;30477;48.224;11.470;2023-02-28T03:39:44;9.48;;;6.82;;
44750;SDS011;30477;48.224;11.470;2023-02-28T03:42:18;11.35;;;7.20;;
44750;SDS011;30477;48.224;11.470;2023-02-28T03:47:23;12.00;;;7.25;;
44750;SDS011;30477;48.224;11.470;2023-02-28T03:52:18;10.90;;;7.00;;
44750;SDS011;30477;48.224;11.470;2023-02-28T03:54:50;13.57;;;7.50;;
44750;SDS011;30477;48.224;11.470;2023-02-28T03:57:41;11.75;;;7.22;;
44750;SDS011;30477;48.224;11.470;2023-02-28T04:00:25;12.10;;;7.85;;
44750;SDS011;30477;48.224;11.470;2023-02-28T04:02:55;11.90;;;7.45;;
44750;SDS011;30477;48.224;11.470;2023-02-28T04:05:21;14.30;;;7.47;;
44750;SDS011;30477;48.224;11.470;2023-02-28T04:07:47;12.85;;;7.60;;
44750;SDS011;30477;48.224;11.470;2023-02-28T04:10:13;13.20;;;8.50;;
44750;SDS011;30477;48.224;11.470;2023-02-28T04:12:40;11.60;;;8.10;;
44750;SDS011;30477;48.224;11.470;2023-02-28T04:15:05;11.90;;;7.50;;
44750;SDS011;30477;48.224;11.470;2023-02-28T04:19:56;14.98;;;8.13;;
44750;SDS011;30477;48.224;11.470;2023-02-28T04:22:22;12.88;;;7.95;;
44750;SDS011;30477;48.224;11.470;2023-02-28T04:24:50;14.45;;;8.77;;
44750;SDS011;30477;48.224;11.470;2023-02-28T04:27:16;13.67;;;8.40;;
44750;SDS011;30477;48.224;11.470;2023-02-28T04:29:41;14.10;;;8.60;;
44750;SDS011;30477;48.224;11.470;2023-02-28T04:32:09;11.95;;;7.78;;
44750;SDS011;30477;48.224;11.470;2023-02-28T04:34:35;15.02;;;8.32;;
44750;SDS011;30477;48.224;11.470;2023-02-28T04:37:00;13.90;;;8.30;;
44750;SDS011;30477;48.224;11.470;2023-02-28T04:39:28;12.93;;;9.05;;
44750;SDS011;30477;48.224;11.470;2023-02-28T04:41:54;14.43;;;8.95;;
44750;SDS011;30477;48.224;11.470;2023-02-28T04:44:20;14.32;;;8.77;;
44750;SDS011;30477;48.224;11.470;2023-02-28T04:46:47;12.43;;;8.32;;
44750;SDS011;30477;48.224;11.470;2023-02-28T04:49:13;14.73;;;8.95;;
44750;SDS011;30477;48.224;11.470;2023-02-28T04:51:39;15.15;;;8.35;;
44750;SDS011;30477;48.224;11.470;2023-02-28T04:54:05;12.20;;;9.02;;
44750;SDS011;30477;48.224;11.470;2023-02-28T04:56:31;12.73;;;8.70;;
44750;SDS011;30477;48.224;11.470;2023-02-28T04:58:56;15.43;;;9.00;;
44750;SDS011;30477;48.224;11.470;2023-02-28T05:01:25;19.97;;;10.00;;
44750;SDS011;30477;48.224;11.470;2023-02-28T05:03:53;15.05;;;9.10;;
44750;SDS011;30477;48.224;11.470;2023-02-28T05:06:20;15.68;;;9.38;;
44750;SDS011;30477;48.224;11.470;2023-02-28T05:08:48;15.65;;;9.75;;
44750;SDS011;30477;48.224;11.470;2023-02-28T05:11:15;16.23;;;9.60;;
44750;SDS011;30477;48.224;11.470;2023-02-28T05:13:45;18.48;;;9.35;;
44750;SDS011;30477;48.224;11.470;2023-02-28T05:16:11;13.85;;;9.35;;
44750;SDS011;30477;48.224;11.470;2023-02-28T05:18:37;15.00;;;9.40;;
44750;SDS011;30477;48.224;11.470;2023-02-28T05:21:02;14.65;;;10.15;;
44750;SDS011;30477;48.224;11.470;2023-02-28T05:23:28;15.27;;;9.45;;
44750;SDS011;30477;48.224;11.470;2023-02-28T05:25:53;15.88;;;9.70;;
44750;SDS011;30477;48.224;11.470;2023-02-28T05:28:19;21.23;;;10.68;;
44750;SDS011;30477;48.224;11.470;2023-02-28T05:30:45;15.45;;;9.88;;
44750;SDS011;30477;48.224;11.470;2023-02-28T05:33:11;15.10;;;10.30;;
44750;SDS011;30477;48.224;11.470;2023-02-28T05:35:38;19.98;;;10.30;;
44750;SDS011;30477;48.224;11.470;2023-02-28T05:38:07;15.57;;;9.88;;
44750;SDS011;30477;48.224;11.470;2023-02-28T05:40:33;17.55;;;10.65;;
44750;SDS011;30477;48.224;11.470;2023-02-28T05:42:59;18.55;;;11.00;;
44750;SDS011;30477;48.224;11.470;2023-02-28T05:45:24;19.27;;;11.33;;
44750;SDS011;30477;48.224;11.470;2023-02-28T05:47:53;18.67;;;10.57;;
44750;SDS011;30477;48.224;11.470;2023-02-28T05:50:19;17.35;;;10.57;;
44750;SDS011;30477;48.224;11.470;2023-02-28T05:52:44;16.83;;;11.03;;
44750;SDS011;30477;48.224;11.470;2023-02-28T05:55:13;18.65;;;11.35;;
44750;SDS011;30477;48.224;11.470;2023-02-28T05:57:38;16.70;;;10.97;;
44750;SDS011;30477;48.224;11.470;2023-02-28T06:00:04;16.83;;;10.77;;
44750;SDS011;30477;48.224;11.470;2023-02-28T06:02:30;20.67;;;11.75;;
44750;SDS011;30477;48.224;11.470;2023-02-28T06:04:55;17.73;;;12.07;;
44750;SDS011;30477;48.224;11.470;2023-02-28T06:07:20;22.27;;;11.37;;
44750;SDS011;30477;48.224;11.470;2023-02-28T06:09:47;16.85;;;10.25;;
44750;SDS011;30477;48.224;11.470;2023-02-28T06:12:12;18.87;;;11.13;;
44750;SDS011;30477;48.224;11.470;2023-02-28T06:14:38;16.67;;;11.30;;
44750;SDS011;30477;48.224;11.470;2023-02-28T06:17:03;19.53;;;10.83;;
44750;SDS011;30477;48.224;11.470;2023-02-28T06:19:30;17.25;;;11.00;;
44750;SDS011;30477;48.224;11.470;2023-02-28T06:21:55;18.93;;;12.67;;
44750;SDS011;30477;48.224;11.470;2023-02-28T06:24:23;21.38;;;12.55;;
44750;SDS011;30477;48.224;11.470;2023-02-28T06:26:49;19.83;;;12.05;;
44750;SDS011;30477;48.224;11.470;2023-02-28T06:29:15;21.15;;;11.55;;
44750;SDS011;30477;48.224;11.470;2023-02-28T06:31:42;20.45;;;12.43;;
44750;SDS011;30477;48.224;11.470;2023-02-28T06:34:08;19.17;;;11.55;;
44750;SDS011;30477;48.224;11.470;2023-02-28T06:36:36;19.38;;;12.23;;
44750;SDS011;30477;48.224;11.470;2023-02-28T06:41:27;20.83;;;10.87;;
44750;SDS011;30477;48.224;11.470;2023-02-28T06:43:53;18.20;;;11.83;;
44750;SDS011;30477;48.224;11.470;2023-02-28T06:46:18;18.13;;;12.60;;
44750;SDS011;30477;48.224;11.470;2023-02-28T06:48:44;19.27;;;11.27;;
44750;SDS011;30477;48.224;11.470;2023-02-28T06:51:11;19.80;;;11.82;;
44750;SDS011;30477;48.224;11.470;2023-02-28T06:53:39;22.60;;;12.70;;
44750;SDS011;30477;48.224;11.470;2023-02-28T06:56:05;20.67;;;12.80;;
44750;SDS011;30477;48.224;11.470;2023-02-28T06:58:35;18.90;;;12.05;;
44750;SDS011;30477;48.224;11.470;2023-02-28T07:01:00;20.85;;;12.73;;
44750;SDS011;30477;48.224;11.470;2023-02-28T07:03:27;20.40;;;13.57;;
44750;SDS011;30477;48.224;11.470;2023-02-28T07:05:52;20.98;;;12.23;;
44750;SDS011;30477;48.224;11.470;2023-02-28T07:08:17;19.97;;;12.13;;
44750;SDS011;30477;48.224;11.470;2023-02-28T07:10:43;20.47;;;11.67;;
44750;SDS011;30477;48.224;11.470;2023-02-28T07:13:09;21.73;;;12.75;;
44750;SDS011;30477;48.224;11.470;2023-02-28T07:15:36;21.80;;;13.35;;
44750;SDS011;30477;48.224;11.470;2023-02-28T07:18:02;22.45;;;13.13;;
44750;SDS011;30477;48.224;11.470;2023-02-28T07:20:28;22.10;;;13.48;;
44750;SDS011;30477;48.224;11.470;2023-02-28T07:22:54;23.02;;;14.20;;
44750;SDS011;30477;48.224;11.470;2023-02-28T07:25:26;26.25;;;13.35;;
44750;SDS011;30477;48.224;11.470;2023-02-28T07:27:53;24.02;;;12.63;;
44750;SDS011;30477;48.224;11.470;2023-02-28T07:30:18;21.27;;;14.02;;
44750;SDS011;30477;48.224;11.470;2023-02-28T07:32:44;23.47;;;15.03;;
44750;SDS011;30477;48.224;11.470;2023-02-28T07:35:10;26.27;;;14.30;;
44750;SDS011;30477;48.224;11.470;2023-02-28T07:37:35;24.07;;;14.80;;
44750;SDS011;30477;48.224;11.470;2023-02-28T07:40:04;24.10;;;14.60;;
44750;SDS011;30477;48.224;11.470;2023-02-28T07:42:37;25.88;;;15.13;;
44750;SDS011;30477;48.224;11.470;2023-02-28T07:45:05;26.88;;;15.35;;
44750;SDS011;30477;48.224;11.470;2023-02-28T07:47:32;25.48;;;16.02;;
44750;SDS011;30477;48.224;11.470;2023-02-28T07:49:57;24.20;;;14.75;;
44750;SDS011;30477;48.224;11.470;2023-02-28T07:52:23;28.20;;;16.60;;
44750;SDS011;30477;48.224;11.470;2023-02-28T07:54:49;24.60;;;15.68;;
44750;SDS011;30477;48.224;11.470;2023-02-28T07:57:15;27.92;;;16.67;;
44750;SDS011;30477;48.224;11.470;2023-02-28T07:59:41;24.52;;;15.38;;
44750;SDS011;30477;48.224;11.470;2023-02-28T08:02:08;25.20;;;16.52;;
44750;SDS011;30477;48.224;11.470;2023-02-28T08:04:43;28.13;;;17.15;;
44750;SDS011;30477;48.224;11.470;2023-02-28T08:07:11;27.13;;;17.25;;
44750;SDS011;30477;48.224;11.470;2023-02-28T08:09:38;26.25;;;16.42;;
44750;SDS011;30477;48.224;11.470;2023-02-28T08:14:29;26.30;;;16.05;;
44750;SDS011;30477;48.224;11.470;2023-02-28T08:16:55;30.90;;;17.90;;
44750;SDS011;30477;48.224;11.470;2023-02-28T08:19:20;28.93;;;17.37;;
44750;SDS011;30477;48.224;11.470;2023-02-28T08:21:45;25.13;;;15.87;;
44750;SDS011;30477;48.224;11.470;2023-02-28T08:24:11;25.97;;;17.37;;
44750;SDS011;30477;48.224;11.470;2023-02-28T08:26:36;29.50;;;18.10;;
44750;SDS011;30477;48.224;11.470;2023-02-28T08:29:02;24.60;;;16.80;;
44750;SDS011;30477;48.224;11.470;2023-02-28T08:31:27;26.97;;;17.00;;
44750;SDS011;30477;48.224;11.470;2023-02-28T08:33:52;27.23;;;17.40;;
44750;SDS011;30477;48.224;11.470;2023-02-28T08:36:20;26.70;;;17.15;;
44750;SDS011;30477;48.224;11.470;2023-02-28T08:38:46;29.50;;;17.43;;
44750;SDS011;30477;48.224;11.470;2023-02-28T08:41:11;26.57;;;17.60;;
44750;SDS011;30477;48.224;11.470;2023-02-28T08:46:04;25.50;;;15.93;;
44750;SDS011;30477;48.224;11.470;2023-02-28T08:48:30;26.52;;;16.23;;
44750;SDS011;30477;48.224;11.470;2023-02-28T08:51:00;31.52;;;17.17;;
44750;SDS011;30477;48.224;11.470;2023-02-28T08:53:27;26.38;;;17.10;;
44750;SDS011;30477;48.224;11.470;2023-02-28T08:56:00;26.93;;;16.63;;
44750;SDS011;30477;48.224;11.470;2023-02-28T09:00:55;26.95;;;17.42;;
44750;SDS011;30477;48.224;11.470;2023-02-28T09:03:21;29.55;;;18.38;;
44750;SDS011;30477;48.224;11.470;2023-02-28T09:05:54;24.98;;;15.40;;
44750;SDS011;30477;48.224;11.470;2023-02-28T09:08:21;23.52;;;16.45;;
44750;SDS011;30477;48.224;11.470;2023-02-28T09:10:47;26.92;;;17.00;;
44750;SDS011;30477;48.224;11.470;2023-02-28T09:13:12;23.73;;;16.13;;
44750;SDS011;30477;48.224;11.470;2023-02-28T09:15:38;29.17;;;18.02;;
44750;SDS011;30477;48.224;11.470;2023-02-28T09:18:03;26.42;;;17.77;;
44750;SDS011;30477;48.224;11.470;2023-02-28T09:20:29;26.00;;;16.42;;
44750;SDS011;30477;48.224;11.470;2023-02-28T09:22:54;25.37;;;16.63;;
44750;SDS011;30477;48.224;11.470;2023-02-28T09:25:20;26.20;;;16.97;;
44750;SDS011;30477;48.224;11.470;2023-02-28T09:27:45;27.50;;;16.00;;
44750;SDS011;30477;48.224;11.470;2023-02-28T09:30:11;26.23;;;17.13;;
44750;SDS011;30477;48.224;11.470;2023-02-28T09:32:37;28.88;;;17.10;;
44750;SDS011;30477;48.224;11.470;2023-02-28T09:35:02;27.93;;;17.47;;
44750;SDS011;30477;48.224;11.470;2023-02-28T09:37:27;27.40;;;17.45;;
44750;SDS011;30477;48.224;11.470;2023-02-28T09:39:54;26.67;;;16.25;;
44750;SDS011;30477;48.224;11.470;2023-02-28T09:42:21;27.30;;;17.03;;
44750;SDS011;30477;48.224;11.470;2023-02-28T09:44:54;27.42;;;16.50;;
44750;SDS011;30477;48.224;11.470;2023-02-28T09:50:51;26.70;;;17.25;;
44750;SDS011;30477;48.224;11.470;2023-02-28T09:52:51;24.92;;;16.80;;
44750;SDS011;30477;48.224;11.470;2023-02-28T09:57:48;26.10;;;16.17;;
44750;SDS011;30477;48.224;11.470;2023-02-28T10:00:21;25.20;;;15.15;;
44750;SDS011;30477;48.224;11.470;2023-02-28T10:05:57;25.02;;;16.55;;
44750;SDS011;30477;48.224;11.470;2023-02-28T10:08:38;24.77;;;16.27;;
44750;SDS011;30477;48.224;11.470;2023-02-28T10:11:15;25.42;;;16.17;;
44750;SDS011;30477;48.224;11.470;2023-02-28T10:16:20;22.27;;;15.77;;
44750;SDS011;30477;48.224;11.470;2023-02-28T10:18:47;23.33;;;15.13;;
44750;SDS011;30477;48.224;11.470;2023-02-28T10:21:27;28.33;;;18.13;;
44750;SDS011;30477;48.224;11.470;2023-02-28T10:24:01;24.27;;;16.92;;
44750;SDS011;30477;48.224;11.470;2023-02-28T10:26:29;25.27;;;16.60;;
44750;SDS011;30477;48.224;11.470;2023-02-28T10:28:57;25.23;;;16.02;;
44750;SDS011;30477;48.224;11.470;2023-02-28T10:31:22;24.97;;;15.57;;
44750;SDS011;30477;48.224;11.470;2023-02-28T10:33:48;27.50;;;16.53;;
44750;SDS011;30477;48.224;11.470;2023-02-28T10:36:14;25.15;;;16.25;;
44750;SDS011;30477;48.224;11.470;2023-02-28T10:38:41;23.98;;;15.73;;
44750;SDS011;30477;48.224;11.470;2023-02-28T10:41:09;27.90;;;17.52;;
44750;SDS011;30477;48.224;11.470;2023-02-28T10:43:37;25.15;;;16.50;;
44750;SDS011;30477;48.224;11.470;2023-02-28T10:51:02;24.70;;;16.17;;
44750;SDS011;30477;48.224;11.470;2023-02-28T10:53:37;23.77;;;16.13;;
44750;SDS011;30477;48.224;11.470;2023-02-28T10:58:48;21.02;;;14.90;;
44750;SDS011;30477;48.224;11.470;2023-02-28T11:04:02;24.92;;;15.80;;
44750;SDS011;30477;48.224;11.470;2023-02-28T11:06:29;22.95;;;15.68;;
44750;SDS011;30477;48.224;11.470;2023-02-28T11:09:01;21.30;;;15.30;;
44750;SDS011;30477;48.224;11.470;2023-02-28T11:11:30;23.73;;;15.57;;
44750;SDS011;30477;48.224;11.470;2023-02-28T11:14:14;21.83;;;15.20;;
44750;SDS011;30477;48.224;11.470;2023-02-28T11:16:53;22.02;;;15.20;;
44750;SDS011;30477;48.224;11.470;2023-02-28T11:19:33;25.27;;;16.92;;
44750;SDS011;30477;48.224;11.470;2023-02-28T11:22:03;27.73;;;16.80;;
44750;SDS011;30477;48.224;11.470;2023-02-28T11:24:31;21.33;;;15.15;;
44750;SDS011;30477;48.224;11.470;2023-02-28T11:32:23;21.85;;;15.27;;
44750;SDS011;30477;48.224;11.470;2023-02-28T11:37:34;20.92;;;15.85;;
44750;SDS011;30477;48.224;11.470;2023-02-28T11:40:00;20.95;;;14.98;;
44750;SDS011;30477;48.224;11.470;2023-02-28T11:42:49;23.27;;;15.63;;
44750;SDS011;30477;48.224;11.470;2023-02-28T11:45:19;22.50;;;14.88;;
44750;SDS011;30477;48.224;11.470;2023-02-28T11:48:18;21.67;;;16.00;;
44750;SDS011;30477;48.224;11.470;2023-02-28T12:10:10;21.10;;;13.95;;
44750;SDS011;30477;48.224;11.470;2023-02-28T12:21:23;21.33;;;14.77;;
44750;SDS011;30477;48.224;11.470;2023-02-28T12:24:19;23.73;;;15.85;;
44750;SDS011;30477;48.224;11.470;2023-02-28T12:26:46;21.27;;;14.48;;
44750;SDS011;30477;48.224;11.470;2023-02-28T12:29:19;20.13;;;13.02;;
44750;SDS011;30477;48.224;11.470;2023-02-28T12:34:27;20.52;;;14.13;;
44750;SDS011;30477;48.224;11.470;2023-02-28T12:36:56;23.48;;;13.57;;
44750;SDS011;30477;48.224;11.470;2023-02-28T12:39:27;22.38;;;13.77;;
44750;SDS011;30477;48.224;11.470;2023-02-28T12:42:01;19.70;;;13.80;;
44750;SDS011;30477;48.224;11.470;2023-02-28T12:45:18;22.73;;;14.20;;
44750;SDS011;30477;48.224;11.470;2023-02-28T12:47:27;20.63;;;14.15;;
44750;SDS011;30477;48.224;11.470;2023-02-28T12:50:00;21.17;;;14.90;;
44750;SDS011;30477;48.224;11.470;2023-02-28T12:52:39;20.40;;;13.52;;
44750;SDS011;30477;48.224;11.470;2023-02-28T12:55:13;19.67;;;13.35;;
44750;SDS011;30477;48.224;11.470;2023-02-28T13:00:22;21.35;;;13.60;;
44750;SDS011;30477;48.224;11.470;2023-02-28T13:02:58;18.40;;;12.40;;
44750;SDS011;30477;48.224;11.470;2023-02-28T13:05:37;21.50;;;13.90;;
44750;SDS011;30477;48.224;11.470;2023-02-28T13:08:23;20.52;;;13.95;;
44750;SDS011;30477;48.224;11.470;2023-02-28T13:10:56;19.10;;;14.32;;
44750;SDS011;30477;48.224;11.470;2023-02-28T13:13:22;20.95;;;14.40;;
44750;SDS011;30477;48.224;11.470;2023-02-28T13:15:56;19.02;;;13.35;;
44750;SDS011;30477;48.224;11.470;2023-02-28T13:18:49;22.55;;;14.43;;
44750;SDS011;30477;48.224;11.470;2023-02-28T13:21:24;19.33;;;13.98;;
44750;SDS011;30477;48.224;11.470;2023-02-28T13:26:24;19.77;;;12.95;;
44750;SDS011;30477;48.224;11.470;2023-02-28T13:39:46;21.45;;;14.23;;
44750;SDS011;30477;48.224;11.470;2023-02-28T13:50:14;19.55;;;13.50;;
44750;SDS011;30477;48.224;11.470;2023-02-28T13:52:45;23.70;;;14.88;;
44750;SDS011;30477;48.224;11.470;2023-02-28T13:55:32;19.88;;;13.38;;
44750;SDS011;30477;48.224;11.470;2023-02-28T13:58:35;23.83;;;13.55;;
44750;SDS011;30477;48.224;11.470;2023-02-28T14:07:20;18.13;;;13.18;;
44750;SDS011;30477;48.224;11.470;2023-02-28T14:10:52;18.10;;;13.70;;
44750;SDS011;30477;48.224;11.470;2023-02-28T14:12:57;17.58;;;13.13;;
44750;SDS011;30477;48.224;11.470;2023-02-28T14:18:27;18.52;;;13.73;;
44750;SDS011;30477;48.224;11.470;2023-02-28T14:23:48;20.25;;;14.15;;
44750;SDS011;30477;48.224;11.470;2023-02-28T14:26:31;17.45;;;13.35;;
44750;SDS011;30477;48.224;11.470;2023-02-28T14:37:59;19.50;;;12.60;;
44750;SDS011;30477;48.224;11.470;2023-02-28T14:40:31;20.67;;;13.30;;
44750;SDS011;30477;48.224;11.470;2023-02-28T14:43:00;19.65;;;13.63;;
44750;SDS011;30477;48.224;11.470;2023-02-28T14:45:29;20.73;;;14.55;;
44750;SDS011;30477;48.224;11.470;2023-02-28T14:47:56;24.35;;;14.80;;
44750;SDS011;30477;48.224;11.470;2023-02-28T14:50:27;20.85;;;13.65;;
44750;SDS011;30477;48.224;11.470;2023-02-28T14:52:55;19.38;;;13.48;;
44750;SDS011;30477;48.224;11.470;2023-02-28T14:55:28;20.97;;;14.60;;
44750;SDS011;30477;48.224;11.470;2023-02-28T14:58:00;23.05;;;14.40;;
44750;SDS011;30477;48.224;11.470;2023-02-28T15:00:36;20.40;;;14.60;;
44750;SDS011;30477;48.224;11.470;2023-02-28T15:03:18;20.70;;;14.07;;
44750;SDS011;30477;48.224;11.470;2023-02-28T15:05:56;19.10;;;13.38;;
44750;SDS011;30477;48.224;11.470;2023-02-28T15:08:23;19.00;;;13.70;;
44750;SDS011;30477;48.224;11.470;2023-02-28T15:13:51;18.17;;;13.00;;
44750;SDS011;30477;48.224;11.470;2023-02-28T15:16:21;20.90;;;13.80;;
44750;SDS011;30477;48.224;11.470;2023-02-28T15:21:23;20.38;;;13.57;;
44750;SDS011;30477;48.224;11.470;2023-02-28T15:24:05;22.60;;;13.45;;
44750;SDS011;30477;48.224;11.470;2023-02-28T15:26:38;21.40;;;12.93;;
44750;SDS011;30477;48.224;11.470;2023-02-28T15:29:07;20.50;;;13.05;;
44750;SDS011;30477;48.224;11.470;2023-02-28T15:31:45;21.15;;;14.15;;
44750;SDS011;30477;48.224;11.470;2023-02-28T15:34:21;17.52;;;13.35;;
44750;SDS011;30477;48.224;11.470;2023-02-28T15:36:51;20.25;;;14.00;;
44750;SDS011;30477;48.224;11.470;2023-02-28T15:39:40;20.53;;;14.70;;
44750;SDS011;30477;48.224;11.470;2023-02-28T15:42:10;18.83;;;13.48;;
44750;SDS011;30477;48.224;11.470;2023-02-28T15:44:45;18.25;;;13.52;;
44750;SDS011;30477;48.224;11.470;2023-02-28T15:47:21;20.03;;;13.33;;
44750;SDS011;30477;48.224;11.470;2023-02-28T15:49:58;17.15;;;13.02;;
44750;SDS011;30477;48.224;11.470;2023-02-28T15:52:29;19.27;;;13.70;;
44750;SDS011;30477;48.224;11.470;2023-02-28T15:55:16;20.70;;;13.82;;
44750;SDS011;30477;48.224;11.470;2023-02-28T15:57:48;21.60;;;14.45;;
44750;SDS011;30477;48.224;11.470;2023-02-28T16:00:19;21.88;;;14.13;;
44750;SDS011;30477;48.224;11.470;2023-02-28T16:02:49;17.52;;;12.93;;
44750;SDS011;30477;48.224;11.470;2023-02-28T16:07:57;20.90;;;14.07;;
44750;SDS011;30477;48.224;11.470;2023-02-28T16:10:26;20.80;;;14.38;;
44750;SDS011;30477;48.224;11.470;2023-02-28T16:12:53;20.30;;;14.05;;
44750;SDS011;30477;48.224;11.470;2023-02-28T16:15:21;18.83;;;13.75;;
44750;SDS011;30477;48.224;11.470;2023-02-28T16:17:51;23.08;;;14.98;;
44750;SDS011;30477;48.224;11.470;2023-02-28T16:20:18;19.95;;;13.70;;
44750;SDS011;30477;48.224;11.470;2023-02-28T16:22:49;21.30;;;14.77;;
44750;SDS011;30477;48.224;11.470;2023-02-28T16:25:16;19.73;;;13.55;;
44750;SDS011;30477;48.224;11.470;2023-02-28T16:27:43;19.67;;;14.02;;
44750;SDS011;30477;48.224;11.470;2023-02-28T16:30:20;20.67;;;14.75;;
44750;SDS011;30477;48.224;11.470;2023-02-28T16:32:47;21.23;;;13.80;;
44750;SDS011;30477;48.224;11.470;2023-02-28T16:37:40;22.00;;;13.93;;
44750;SDS011;30477;48.224;11.470;2023-02-28T16:42:33;16.58;;;11.02;;
44750;SDS011;30477;48.224;11.470;2023-02-28T16:44:58;22.47;;;14.33;;
44750;SDS011;30477;48.224;11.470;2023-02-28T16:47:24;21.23;;;14.63;;
44750;SDS011;30477;48.224;11.470;2023-02-28T16:49:51;21.42;;;14.27;;
44750;SDS011;30477;48.224;11.470;2023-02-28T16:52:17;22.80;;;14.77;;
44750;SDS011;30477;48.224;11.470;2023-02-28T16:54:42;20.00;;;13.57;;
44750;SDS011;30477;48.224;11.470;2023-02-28T16:57:18;21.50;;;14.23;;
44750;SDS011;30477;48.224;11.470;2023-02-28T16:59:46;22.85;;;14.77;;
44750;SDS011;30477;48.224;11.470;2023-02-28T17:02:14;22.20;;;14.43;;
44750;SDS011;30477;48.224;11.470;2023-02-28T17:04:41;22.15;;;14.52;;
44750;SDS011;30477;48.224;11.470;2023-02-28T17:07:10;20.87;;;14.43;;
44750;SDS011;30477;48.224;11.470;2023-02-28T17:09:37;21.40;;;14.65;;
44750;SDS011;30477;48.224;11.470;2023-02-28T17:12:03;23.10;;;15.53;;
44750;SDS011;30477;48.224;11.470;2023-02-28T17:14:28;27.10;;;17.42;;
44750;SDS011;30477;48.224;11.470;2023-02-28T17:16:54;23.43;;;16.03;;
44750;SDS011;30477;48.224;11.470;2023-02-28T17:19:19;25.17;;;16.77;;
44750;SDS011;30477;48.224;11.470;2023-02-28T17:21:44;27.07;;;17.17;;